createdAt,value
2023-02-25T00:01:18.188Z,18.174999999999997
2023-02-25T00:04:17.252Z,12.2
2023-02-25T00:07:17.217Z,10.025
2023-02-25T00:11:18.455Z,11.3375
2023-02-25T00:14:16.844Z,16.6875
2023-02-25T00:17:17.230Z,17.5375
2023-02-25T00:21:17.242Z,12.525
2023-02-25T00:24:17.454Z,17.475
2023-02-25T00:27:17.453Z,9.125
2023-02-25T00:31:18.829Z,22.725
2023-02-25T00:34:18.368Z,12.7
2023-02-25T00:37:17.546Z,9.675
2023-02-25T00:41:20.073Z,9.0625
2023-02-25T00:44:17.536Z,16.6375
2023-02-25T00:47:19.025Z,10.637500000000001
2023-02-25T00:51:18.574Z,19.049999999999997
2023-02-25T00:54:17.378Z,10.7125
2023-02-25T00:57:17.544Z,11.425
2023-02-25T01:01:20.218Z,14.399999999999999
2023-02-25T01:04:16.886Z,8.9625
2023-02-25T01:07:18.127Z,7.3625
2023-02-25T01:11:18.872Z,11.2375
2023-02-25T01:14:19.377Z,9.975000000000001
2023-02-25T01:17:17.094Z,13.025
2023-02-25T01:21:20.488Z,10.649999999999999
2023-02-25T01:24:20.273Z,9.575
2023-02-25T01:27:17.006Z,7.875
2023-02-25T01:31:19.438Z,17.4
2023-02-25T01:34:17.920Z,9.587499999999999
2023-02-25T01:37:17.262Z,6.1625
2023-02-25T01:41:17.175Z,6.6499999999999995
2023-02-25T01:44:19.055Z,10.05
2023-02-25T01:47:19.766Z,8.15
2023-02-25T01:51:16.773Z,9.4375
2023-02-25T01:54:18.909Z,9.724999999999998
2023-02-25T01:57:18.599Z,19
2023-02-25T02:01:20.504Z,8.4875
2023-02-25T02:04:19.279Z,11.475000000000001
2023-02-25T02:07:18.188Z,6.5249999999999995
2023-02-25T02:11:16.539Z,7.012499999999999
2023-02-25T02:14:20.270Z,5.4625
2023-02-25T02:17:22.324Z,6.3125
2023-02-25T02:21:39.943Z,11.4375
2023-02-25T02:31:44.834Z,9.325000000000001
2023-02-25T02:34:30.771Z,11.9875
2023-02-25T02:37:28.693Z,11.525
2023-02-25T02:41:27.191Z,10.575
2023-02-25T02:44:22.615Z,15.950000000000003
2023-02-25T02:47:23.791Z,5.7875
2023-02-25T02:51:21.019Z,8.4
2023-02-25T02:54:20.263Z,11.5875
2023-02-25T02:57:20.721Z,6.0875
2023-02-25T03:01:20.383Z,8.600000000000001
2023-02-25T03:04:21.455Z,10.475
2023-02-25T03:07:17.858Z,10.7625
2023-02-25T03:11:16.934Z,14.149999999999999
2023-02-25T03:14:17.476Z,7.812500000000001
2023-02-25T03:17:20.796Z,7.887499999999999
2023-02-25T03:21:20.710Z,9.4625
2023-02-25T03:24:22.020Z,13.325
2023-02-25T03:27:24.577Z,7.225
2023-02-25T03:31:22.548Z,6.6625000000000005
2023-02-25T03:34:21.875Z,6.275
2023-02-25T03:37:21.403Z,5.1875
2023-02-25T03:41:20.805Z,6.7
2023-02-25T03:44:23.201Z,7.1625
2023-02-25T03:47:18.776Z,4.550000000000001
2023-02-25T03:51:21.525Z,6.612500000000001
2023-02-25T03:54:17.338Z,5.1375
2023-02-25T03:57:17.538Z,8.225
2023-02-25T04:01:21.010Z,9.05
2023-02-25T04:04:16.859Z,5.525
2023-02-25T04:07:16.845Z,7.125
2023-02-25T04:11:16.836Z,8.4125
2023-02-25T04:14:18.761Z,10.375
2023-02-25T04:17:17.257Z,6.262499999999999
2023-02-25T04:21:26.664Z,7.512499999999999
2023-02-25T04:24:17.430Z,7.324999999999999
2023-02-25T04:27:17.709Z,5.749999999999999
2023-02-25T04:31:16.957Z,8.725000000000001
2023-02-25T04:34:17.479Z,44.6875
2023-02-25T04:37:17.785Z,35.825
2023-02-25T04:41:17.186Z,14.9875
2023-02-25T04:44:17.284Z,10.125
2023-02-25T04:47:19.363Z,6.0625
2023-02-25T04:51:17.518Z,12.362499999999999
2023-02-25T04:54:19.624Z,10.3
2023-02-25T04:57:16.701Z,7.925000000000001
2023-02-25T05:01:17.191Z,12.8375
2023-02-25T05:04:17.077Z,10.487499999999999
2023-02-25T05:07:17.119Z,9.35
2023-02-25T05:11:17.062Z,8.8
2023-02-25T05:14:17.452Z,7.85
2023-02-25T05:17:17.029Z,7.7125
2023-02-25T05:21:18.718Z,7.1375
2023-02-25T05:24:18.374Z,4.9375
2023-02-25T05:27:17.206Z,8.375
2023-02-25T05:31:17.606Z,7.55
2023-02-25T05:34:17.413Z,7.75
2023-02-25T05:37:17.378Z,8.774999999999999
2023-02-25T05:41:16.549Z,12.25
2023-02-25T05:44:17.324Z,13.7375
2023-02-25T05:47:17.043Z,5.112500000000001
2023-02-25T05:51:18.462Z,9.0375
2023-02-25T05:54:16.806Z,6.7250000000000005
2023-02-25T05:57:16.775Z,9.125
2023-02-25T06:01:19.346Z,8.7875
2023-02-25T06:04:17.434Z,14.1875
2023-02-25T06:07:17.463Z,7.325
2023-02-25T06:11:19.241Z,10.162500000000001
2023-02-25T06:14:16.777Z,9.8125
2023-02-25T06:17:16.611Z,12.575
2023-02-25T06:21:18.139Z,7.15
2023-02-25T06:24:19.793Z,6.1625
2023-02-25T06:27:17.242Z,5.475
2023-02-25T06:31:19.481Z,6.625
2023-02-25T06:34:17.624Z,6.4625
2023-02-25T06:37:17.237Z,10.600000000000001
2023-02-25T06:41:19.816Z,14.399999999999999
2023-02-25T06:44:17.316Z,7.612499999999999
2023-02-25T06:47:17.418Z,8.0625
2023-02-25T06:51:16.649Z,18.85
2023-02-25T06:54:17.581Z,9.162500000000001
2023-02-25T06:57:16.948Z,10.4125
2023-02-25T07:01:17.185Z,8.350000000000001
2023-02-25T07:04:19.223Z,4.0125
2023-02-25T07:07:17.152Z,6.4625
2023-02-25T07:11:29.576Z,16.725
2023-02-25T07:14:19.045Z,7.3374999999999995
2023-02-25T07:17:17.291Z,11.6875
2023-02-25T07:21:18.624Z,10.725
2023-02-25T07:24:18.045Z,9.25
2023-02-25T07:27:17.850Z,16.537499999999998
2023-02-25T07:31:19.092Z,8.012500000000001
2023-02-25T07:34:17.478Z,6.6625000000000005
2023-02-25T07:37:19.528Z,5.9125
2023-02-25T07:41:18.960Z,13.7375
2023-02-25T07:44:17.539Z,9.537500000000001
2023-02-25T07:47:17.434Z,8.774999999999999
2023-02-25T07:51:20.655Z,9.8125
2023-02-25T07:54:17.860Z,7.449999999999999
2023-02-25T07:57:19.580Z,9.375
2023-02-25T08:01:22.936Z,19.925
2023-02-25T08:04:18.339Z,6.525
2023-02-25T08:07:18.138Z,11.5
2023-02-25T08:11:19.473Z,7.2375
2023-02-25T08:14:17.447Z,10.5625
2023-02-25T08:17:20.908Z,10.412500000000001
2023-02-25T08:21:21.733Z,15.1875
2023-02-25T08:24:21.836Z,10.3875
2023-02-25T08:27:18.928Z,10.35
2023-02-25T08:31:19.327Z,13.325
2023-02-25T08:34:18.268Z,8.662500000000001
2023-02-25T08:37:18.009Z,10.5875
2023-02-25T08:41:18.018Z,13.075
2023-02-25T08:44:16.816Z,22.887500000000003
2023-02-25T08:47:17.000Z,9.5125
2023-02-25T08:51:16.929Z,15.537500000000001
2023-02-25T08:54:17.040Z,18.675
2023-02-25T08:57:17.074Z,14.525
2023-02-25T09:01:17.531Z,12.55
2023-02-25T09:04:20.005Z,15.700000000000001
2023-02-25T09:07:17.793Z,17.275000000000002
2023-02-25T09:11:17.408Z,19.9625
2023-02-25T09:14:17.470Z,12.425
2023-02-25T09:17:16.711Z,11.625
2023-02-25T09:21:17.788Z,16.4
2023-02-25T09:24:17.475Z,19.1125
2023-02-25T09:27:17.021Z,25.762500000000003
2023-02-25T09:31:17.914Z,17.8875
2023-02-25T09:34:17.431Z,24
2023-02-25T09:37:17.957Z,18.275
2023-02-25T09:41:24.945Z,22.1625
2023-02-25T09:44:19.838Z,24.0125
2023-02-25T09:47:20.694Z,22.4375
2023-02-25T09:51:20.382Z,20.737499999999997
2023-02-25T09:54:24.461Z,25.1875
2023-02-25T09:57:19.289Z,27.9625
2023-02-25T10:01:25.138Z,28.75
2023-02-25T10:04:24.193Z,25.65
2023-02-25T10:07:22.305Z,23.5625
2023-02-25T10:11:26.748Z,19.3
2023-02-25T10:14:34.605Z,21.5125
2023-02-25T10:17:25.611Z,15.8125
2023-02-25T10:21:28.886Z,23.2625
2023-02-25T10:24:27.425Z,14.100000000000001
2023-02-25T10:27:23.981Z,14.0875
2023-02-25T10:31:19.266Z,18.762500000000003
2023-02-25T10:34:22.434Z,12.175
2023-02-25T10:37:21.254Z,19.45
2023-02-25T10:41:17.509Z,17.7125
2023-02-25T10:44:16.735Z,15.7875
2023-02-25T10:51:16.997Z,16.9125
2023-02-25T10:54:17.184Z,17.9
2023-02-25T10:57:22.707Z,17.15
2023-02-25T11:01:20.114Z,18.137500000000003
2023-02-25T11:04:20.271Z,15.8
2023-02-25T11:07:31.525Z,12.825
2023-02-25T11:11:21.496Z,16.1875
2023-02-25T11:14:17.365Z,18.7125
2023-02-25T11:17:20.814Z,20.7125
2023-02-25T11:21:26.728Z,15.775
2023-02-25T11:24:28.193Z,14.5125
2023-02-25T11:27:25.916Z,18.1625
2023-02-25T11:31:19.929Z,16.0625
2023-02-25T11:34:21.035Z,22.6625
2023-02-25T11:41:20.996Z,17.2375
2023-02-25T11:44:23.949Z,13.7875
2023-02-25T11:47:24.924Z,15.2875
2023-02-25T11:51:25.611Z,23.1625
2023-02-25T11:54:28.803Z,20.6375
2023-02-25T11:57:31.278Z,20.0875
2023-02-25T12:01:31.348Z,23.525000000000002
2023-02-25T12:04:53.459Z,14.8875
2023-02-25T12:22:51.465Z,16.375
2023-02-25T12:24:48.732Z,13.9625
2023-02-25T12:27:37.354Z,18.3875
2023-02-25T12:41:31.672Z,14.2
2023-02-25T12:44:41.593Z,16.1375
2023-02-25T12:47:24.401Z,16.4
2023-02-25T12:51:42.887Z,21.5875
2023-02-25T12:54:36.229Z,14.6
2023-02-25T12:57:36.130Z,17.462500000000002
2023-02-25T13:01:29.473Z,8.4375
2023-02-25T13:04:46.387Z,12.7125
2023-02-25T13:07:33.317Z,42.8625
2023-02-25T13:11:30.411Z,17.3625
2023-02-25T13:14:31.691Z,16.412499999999998
2023-02-25T13:17:33.556Z,16.7875
2023-02-25T13:21:31.485Z,10.899999999999999
2023-02-25T13:24:32.844Z,13.4875
2023-02-25T13:27:41.990Z,13.6375
2023-02-25T13:31:28.053Z,28.925
2023-02-25T13:34:28.201Z,17.325
2023-02-25T13:37:29.610Z,18.125
2023-02-25T13:41:33.211Z,14.775
2023-02-25T13:44:31.751Z,13
2023-02-25T13:47:36.421Z,18.675
2023-02-25T14:01:46.564Z,23.15
2023-02-25T14:04:42.945Z,22.725
2023-02-25T14:07:29.919Z,21.4
2023-02-25T14:11:32.529Z,13.425
2023-02-25T14:14:32.196Z,15.85
2023-02-25T14:17:48.336Z,14.225
2023-02-25T14:21:53.081Z,18.35
2023-02-25T14:24:23.305Z,14.1125
2023-02-25T14:27:26.942Z,17.275
2023-02-25T14:31:21.955Z,14.087499999999999
2023-02-25T14:34:29.732Z,22.75
2023-02-25T14:37:36.887Z,26.599999999999998
2023-02-25T14:41:34.678Z,19.9625
2023-02-25T14:44:24.949Z,19.862499999999997
2023-02-25T14:47:25.271Z,17.25
2023-02-25T14:51:37.337Z,19.75
2023-02-25T14:55:06.224Z,19.112499999999997
2023-02-25T14:57:41.099Z,24.7875
2023-02-25T15:11:38.197Z,23.2125
2023-02-25T15:21:37.738Z,17.25
2023-02-25T15:24:54.052Z,11.375
2023-02-25T15:27:46.666Z,16.2125
2023-02-25T15:31:29.459Z,26.0625
2023-02-25T15:34:33.072Z,14.774999999999999
2023-02-25T15:37:25.916Z,16.6375
2023-02-25T15:41:44.241Z,24.8125
2023-02-25T15:44:49.099Z,14.2125
2023-02-25T15:47:27.134Z,15.7125
2023-02-25T15:51:41.121Z,15.3125
2023-02-25T15:54:50.215Z,17.775
2023-02-25T15:57:37.923Z,15.5
2023-02-25T16:01:36.211Z,18.6625
2023-02-25T16:04:49.800Z,18.2875
2023-02-25T16:07:20.326Z,14.662500000000001
2023-02-25T16:11:24.328Z,17.612499999999997
2023-02-25T16:14:23.644Z,19.5375
2023-02-25T16:17:19.768Z,16.1625
2023-02-25T16:21:22.796Z,21.199999999999996
2023-02-25T16:24:18.820Z,14.9
2023-02-25T16:27:32.897Z,28.9875
2023-02-25T16:31:20.655Z,25.7375
2023-02-25T16:34:23.707Z,24.55
2023-02-25T16:37:22.537Z,15.825
2023-02-25T16:41:16.776Z,16.8625
2023-02-25T16:44:19.656Z,16.7875
2023-02-25T16:47:23.223Z,19.1625
2023-02-25T16:51:24.038Z,17.6875
2023-02-25T16:54:21.341Z,21.2875
2023-02-25T16:57:20.593Z,20.75
2023-02-25T17:01:22.506Z,22.049999999999997
2023-02-25T17:04:19.687Z,23.349999999999998
2023-02-25T17:07:23.981Z,41.7125
2023-02-25T17:11:17.876Z,39
2023-02-25T17:14:16.583Z,59.55
2023-02-25T17:17:21.664Z,30.55
2023-02-25T17:21:22.260Z,30.075000000000003
2023-02-25T17:24:19.854Z,21.762500000000003
2023-02-25T17:27:18.776Z,34.45
2023-02-25T17:31:18.860Z,28.775000000000002
2023-02-25T17:34:19.079Z,20.9375
2023-02-25T17:37:18.683Z,26.125
2023-02-25T17:41:18.378Z,30.250000000000004
2023-02-25T17:44:43.802Z,25.162499999999998
2023-02-25T17:47:20.987Z,27.2625
2023-02-25T17:51:16.204Z,31.9
2023-02-25T17:54:21.690Z,21.8625
2023-02-25T17:57:19.781Z,23.6125
2023-02-25T18:01:26.467Z,19.762500000000003
2023-02-25T18:04:25.166Z,22.375
2023-02-25T18:07:20.699Z,23.15
2023-02-25T18:11:25.843Z,24.862499999999997
2023-02-25T18:14:24.550Z,23.65
2023-02-25T18:17:24.280Z,43.3
2023-02-25T18:21:16.736Z,33.837500000000006
2023-02-25T18:24:27.260Z,25.2875
2023-02-25T18:27:22.877Z,20.0875
2023-02-25T18:31:18.697Z,23.8375
2023-02-25T18:34:16.426Z,24.6875
2023-02-25T18:37:18.152Z,25.6
2023-02-25T18:41:16.475Z,21.75
2023-02-25T18:44:16.348Z,28.0625
2023-02-25T18:47:17.188Z,21.212500000000002
2023-02-25T18:51:16.403Z,27.1
2023-02-25T18:54:17.606Z,24.325000000000003
2023-02-25T18:57:21.229Z,21.15
2023-02-25T19:01:21.705Z,20.25
2023-02-25T19:04:17.061Z,23.424999999999997
2023-02-25T19:07:16.380Z,25.375
2023-02-25T19:11:19.709Z,25.625
2023-02-25T19:14:17.210Z,26.125
2023-02-25T19:17:16.608Z,25.3375
2023-02-25T19:21:18.366Z,31.575
2023-02-25T19:24:16.602Z,30.65
2023-02-25T19:27:20.774Z,26.2875
2023-02-25T19:31:18.079Z,25.525
2023-02-25T19:34:16.727Z,46.2
2023-02-25T19:37:19.052Z,31.525
2023-02-25T19:41:16.662Z,31.587500000000006
2023-02-25T19:44:17.945Z,25.9625
2023-02-25T19:47:17.156Z,25.6875
2023-02-25T19:51:16.629Z,20.7125
2023-02-25T19:54:18.171Z,27.225
2023-02-25T19:57:17.079Z,23.987499999999997
2023-02-25T20:01:16.639Z,23.125
2023-02-25T20:04:16.985Z,20.9375
2023-02-25T20:07:16.926Z,19.625
2023-02-25T20:11:18.732Z,22.025000000000002
2023-02-25T20:14:18.193Z,16.65
2023-02-25T20:17:19.128Z,15.0375
2023-02-25T20:21:19.720Z,19.7
2023-02-25T20:24:17.403Z,20.962500000000002
2023-02-25T20:27:18.256Z,22.3
2023-02-25T20:31:18.667Z,20.5375
2023-02-25T20:34:22.636Z,15.162500000000001
2023-02-25T20:37:20.616Z,30.75
2023-02-25T20:41:16.854Z,41.6
2023-02-25T20:44:17.362Z,24.900000000000002
2023-02-25T20:47:19.804Z,23.9625
2023-02-25T20:51:16.980Z,21.387500000000003
2023-02-25T20:54:19.203Z,21.3125
2023-02-25T20:57:19.928Z,26.5
2023-02-25T21:01:17.365Z,30.462500000000002
2023-02-25T21:04:18.909Z,17.712500000000002
2023-02-25T21:07:16.590Z,15.424999999999999
2023-02-25T21:11:18.860Z,16.762500000000003
2023-02-25T21:14:18.200Z,25.5
2023-02-25T21:17:18.412Z,18.9125
2023-02-25T21:21:21.034Z,15.7125
2023-02-25T21:24:19.561Z,11.55
2023-02-25T21:27:18.850Z,9.9625
2023-02-25T21:31:16.718Z,20.1
2023-02-25T21:34:16.546Z,17.762500000000003
2023-02-25T21:37:17.721Z,13.0375
2023-02-25T21:41:17.729Z,22.0625
2023-02-25T21:44:17.122Z,27.7125
2023-02-25T21:47:16.837Z,19.8875
2023-02-25T21:51:19.270Z,16.6125
2023-02-25T21:54:17.286Z,11.425
2023-02-25T21:57:17.009Z,14.9125
2023-02-25T22:01:20.419Z,10.7125
2023-02-25T22:04:19.743Z,11.837499999999999
2023-02-25T22:07:17.182Z,11.325
2023-02-25T22:11:20.102Z,14.774999999999999
2023-02-25T22:14:17.547Z,8.100000000000001
2023-02-25T22:17:16.727Z,10.875
2023-02-25T22:21:18.434Z,14.95
2023-02-25T22:24:16.572Z,9.45
2023-02-25T22:27:16.456Z,15.5625
2023-02-25T22:31:17.170Z,10.2625
2023-02-25T22:34:16.206Z,9.5875
2023-02-25T22:37:16.048Z,13.524999999999999
2023-02-25T22:41:18.100Z,13.1
2023-02-25T22:44:16.076Z,14.274999999999999
2023-02-25T22:47:16.310Z,13.7625
2023-02-25T22:51:19.588Z,16.5
2023-02-25T22:54:18.473Z,10.7125
2023-02-25T22:57:16.233Z,16.4375
2023-02-25T23:01:19.441Z,13.5
2023-02-25T23:04:16.543Z,12.2875
2023-02-25T23:07:17.175Z,20.6125
2023-02-25T23:11:18.501Z,12.337499999999999
2023-02-25T23:14:16.347Z,10.2625
2023-02-25T23:17:16.245Z,10.962499999999999
2023-02-25T23:21:20.158Z,16.4125
2023-02-25T23:24:19.783Z,11.55
2023-02-25T23:27:17.254Z,10.375
2023-02-25T23:31:18.424Z,10.15
2023-02-25T23:34:19.535Z,9.875
2023-02-25T23:37:16.276Z,14.275
2023-02-25T23:41:16.670Z,16.0125
2023-02-25T23:44:16.966Z,10.15
2023-02-25T23:47:17.677Z,32.725
2023-02-25T23:51:16.312Z,27.0625
2023-02-25T23:54:19.690Z,16.0875
2023-02-25T23:57:16.682Z,15.925
